createdAt,value
2022-09-12T00:00:35.188Z,1.18
2022-09-12T00:03:01.509Z,1.19
2022-09-12T00:05:27.833Z,1.32
2022-09-12T00:07:54.161Z,1.16
2022-09-12T00:10:20.486Z,1.28
2022-09-12T00:12:46.826Z,1.16
2022-09-12T00:15:13.148Z,1.12
2022-09-12T00:17:39.471Z,1.16
2022-09-12T00:20:05.798Z,1.03
2022-09-12T00:22:32.111Z,1.22
2022-09-12T00:24:58.449Z,1.16
2022-09-12T00:27:24.777Z,1.10
2022-09-12T00:29:51.092Z,1.23
2022-09-12T00:32:17.417Z,1.19
2022-09-12T00:34:43.731Z,1.06
2022-09-12T00:37:10.047Z,1.03
2022-09-12T00:39:36.376Z,1.23
2022-09-12T00:42:02.691Z,1.21
2022-09-12T00:44:29.001Z,1.17
2022-09-12T00:46:55.334Z,1.20
2022-09-12T00:49:21.647Z,1.23
2022-09-12T00:51:47.968Z,1.18
2022-09-12T00:54:14.338Z,1.23
2022-09-12T00:56:40.644Z,1.20
2022-09-12T00:59:06.964Z,1.12
2022-09-12T01:01:33.396Z,1.15
2022-09-12T01:03:59.820Z,1.18
2022-09-12T01:06:26.152Z,1.17
2022-09-12T01:08:52.479Z,1.24
2022-09-12T01:11:18.808Z,1.19
2022-09-12T01:13:45.144Z,1.21
2022-09-12T01:16:11.542Z,1.30
2022-09-12T01:18:37.909Z,1.14
2022-09-12T01:21:04.241Z,1.08
2022-09-12T01:23:30.568Z,1.17
2022-09-12T01:25:56.902Z,1.31
2022-09-12T01:28:23.230Z,1.13
2022-09-12T01:30:49.570Z,1.16
2022-09-12T01:33:15.897Z,1.18
2022-09-12T01:35:42.218Z,1.16
2022-09-12T01:38:08.540Z,1.30
2022-09-12T01:40:34.884Z,1.32
2022-09-12T01:43:01.209Z,1.19
2022-09-12T01:45:27.572Z,1.22
2022-09-12T01:47:53.936Z,1.37
2022-09-12T01:50:20.256Z,1.19
2022-09-12T01:52:46.573Z,1.20
2022-09-12T01:55:12.908Z,1.25
2022-09-12T01:57:39.238Z,1.34
2022-09-12T02:00:05.558Z,1.24
2022-09-12T02:02:31.879Z,1.32
2022-09-12T02:04:58.185Z,1.24
2022-09-12T02:07:24.516Z,1.33
2022-09-12T02:09:50.844Z,1.36
2022-09-12T02:12:17.179Z,1.38
2022-09-12T02:14:43.501Z,1.33
2022-09-12T02:17:09.832Z,1.32
2022-09-12T02:19:36.171Z,1.42
2022-09-12T02:22:02.503Z,1.40
2022-09-12T02:24:28.839Z,1.29
2022-09-12T02:26:55.161Z,1.37
2022-09-12T02:29:21.484Z,1.29
2022-09-12T02:31:47.821Z,1.29
2022-09-12T02:34:14.146Z,1.27
2022-09-12T02:36:40.472Z,1.21
2022-09-12T02:39:06.811Z,1.36
2022-09-12T02:41:33.135Z,1.37
2022-09-12T02:43:59.460Z,1.25
2022-09-12T02:46:25.799Z,1.37
2022-09-12T02:48:52.125Z,1.50
2022-09-12T02:51:23.379Z,1.31
2022-09-12T02:53:50.041Z,1.32
2022-09-12T02:56:16.367Z,1.30
2022-09-12T02:58:42.697Z,1.34
2022-09-12T03:01:09.126Z,1.25
2022-09-12T03:03:35.511Z,1.37
2022-09-12T03:06:01.845Z,1.34
2022-09-12T03:08:28.173Z,1.41
2022-09-12T03:10:54.509Z,1.34
2022-09-12T03:13:20.837Z,1.32
2022-09-12T03:15:47.159Z,1.32
2022-09-12T03:18:13.491Z,1.35
2022-09-12T03:20:39.816Z,1.43
2022-09-12T03:23:06.137Z,1.32
2022-09-12T03:25:32.465Z,1.41
2022-09-12T03:27:58.795Z,1.23
2022-09-12T03:30:25.170Z,1.40
2022-09-12T03:32:51.521Z,1.35
2022-09-12T03:35:22.226Z,1.30
2022-09-12T03:37:49.265Z,1.42
2022-09-12T03:40:15.644Z,1.44
2022-09-12T03:42:41.994Z,1.39
2022-09-12T03:45:08.323Z,1.44
2022-09-12T03:47:34.670Z,1.36
2022-09-12T03:50:01.007Z,1.31
2022-09-12T03:52:27.332Z,1.40
2022-09-12T03:54:53.674Z,1.34
2022-09-12T03:57:20.013Z,1.32
2022-09-12T03:59:46.335Z,1.32
2022-09-12T04:02:12.687Z,1.25
2022-09-12T04:04:39.045Z,1.33
2022-09-12T04:07:05.373Z,1.33
2022-09-12T04:09:31.700Z,1.40
2022-09-12T04:11:58.039Z,1.34
2022-09-12T04:14:24.362Z,1.40
2022-09-12T04:16:50.732Z,1.37
2022-09-12T04:19:17.066Z,1.32
2022-09-12T04:21:43.393Z,1.47
2022-09-12T04:24:09.730Z,1.40
2022-09-12T04:26:36.055Z,1.68
2022-09-12T04:29:02.387Z,6.10
2022-09-12T04:31:28.726Z,9.18
2022-09-12T04:33:55.071Z,17.74
2022-09-12T04:36:21.400Z,29.45
2022-09-12T04:38:47.881Z,26.84
2022-09-12T04:41:14.280Z,33.83
2022-09-12T04:43:40.616Z,34.57
2022-09-12T04:46:07.002Z,34.94
2022-09-12T04:48:33.375Z,32.34
2022-09-12T04:50:59.708Z,28.11
2022-09-12T04:53:26.027Z,24.58
2022-09-12T04:55:52.355Z,21.07
2022-09-12T04:58:18.699Z,20.49
2022-09-12T05:00:45.032Z,21.25
2022-09-12T05:03:11.377Z,22.22
2022-09-12T05:05:37.726Z,21.62
2022-09-12T05:08:04.065Z,20.38
2022-09-12T05:10:30.401Z,19.73
2022-09-12T05:12:56.760Z,19.37
2022-09-12T05:15:23.101Z,18.43
2022-09-12T05:17:49.439Z,18.03
2022-09-12T05:20:15.794Z,17.81
2022-09-12T05:22:42.123Z,17.25
2022-09-12T05:25:08.456Z,16.72
2022-09-12T05:27:34.809Z,16.47
2022-09-12T05:30:01.150Z,15.18
2022-09-12T05:32:27.498Z,15.52
2022-09-12T05:34:53.832Z,15.21
2022-09-12T05:37:20.165Z,14.70
2022-09-12T05:39:46.545Z,15.26
2022-09-12T05:42:12.906Z,14.83
2022-09-12T05:44:39.243Z,14.21
2022-09-12T05:47:05.586Z,13.84
2022-09-12T05:49:31.908Z,13.94
2022-09-12T05:51:58.236Z,14.06
2022-09-12T05:54:28.322Z,13.41
2022-09-12T05:56:57.211Z,13.48
2022-09-12T05:59:23.542Z,13.26
2022-09-12T06:01:49.942Z,13.37
2022-09-12T06:04:16.305Z,12.88
2022-09-12T06:06:42.642Z,12.65
2022-09-12T06:09:08.987Z,12.92
2022-09-12T06:11:35.325Z,12.42
2022-09-12T06:14:01.667Z,12.51
2022-09-12T06:16:28.128Z,12.07
2022-09-12T06:18:54.549Z,12.01
2022-09-12T06:21:20.879Z,11.97
2022-09-12T06:23:47.216Z,11.44
2022-09-12T06:26:13.539Z,11.60
2022-09-12T06:28:39.865Z,11.19
2022-09-12T06:31:06.262Z,11.92
2022-09-12T06:33:32.674Z,11.65
2022-09-12T06:35:59.054Z,11.16
2022-09-12T06:38:25.394Z,11.12
2022-09-12T06:40:51.710Z,10.62
2022-09-12T06:43:18.045Z,10.54
2022-09-12T06:45:44.456Z,10.30
2022-09-12T06:48:10.815Z,10.45
2022-09-12T06:50:37.150Z,10.55
2022-09-12T06:53:03.486Z,10.50
2022-09-12T06:55:29.815Z,9.78
2022-09-12T06:57:56.192Z,10.29
2022-09-12T07:00:22.533Z,10.02
2022-09-12T07:02:48.869Z,9.57
2022-09-12T07:05:15.197Z,9.20
2022-09-12T07:07:41.533Z,9.65
2022-09-12T07:10:07.865Z,9.80
2022-09-12T07:12:34.241Z,9.81
2022-09-12T07:15:00.591Z,9.50
2022-09-12T07:17:26.945Z,9.33
2022-09-12T07:19:53.268Z,8.87
2022-09-12T07:22:19.609Z,8.90
2022-09-12T07:24:45.935Z,8.96
2022-09-12T07:27:12.272Z,8.84
2022-09-12T07:29:38.613Z,8.63
2022-09-12T07:32:04.940Z,8.97
2022-09-12T07:34:31.268Z,8.97
2022-09-12T07:36:57.612Z,8.80
2022-09-12T07:39:24.053Z,8.64
2022-09-12T07:41:50.377Z,8.70
2022-09-12T07:44:16.718Z,8.53
2022-09-12T07:46:43.055Z,8.11
2022-09-12T07:49:09.391Z,8.60
2022-09-12T07:51:35.709Z,7.99
2022-09-12T07:54:02.049Z,8.57
2022-09-12T07:56:30.668Z,8.01
2022-09-12T07:58:58.311Z,7.88
2022-09-12T08:01:24.703Z,8.22
2022-09-12T08:03:51.116Z,8.10
2022-09-12T08:06:17.460Z,7.57
2022-09-12T08:08:43.802Z,7.41
2022-09-12T08:11:10.140Z,7.99
2022-09-12T08:13:36.594Z,7.36
2022-09-12T08:16:02.963Z,7.72
2022-09-12T08:18:29.320Z,7.94
2022-09-12T08:20:55.690Z,7.53
2022-09-12T08:23:22.020Z,7.58
2022-09-12T08:25:48.379Z,7.42
2022-09-12T08:28:14.707Z,7.45
2022-09-12T08:30:41.081Z,6.91
2022-09-12T08:33:07.425Z,7.05
2022-09-12T08:35:33.751Z,6.93
2022-09-12T08:38:00.087Z,7.03
2022-09-12T08:40:26.434Z,6.71
2022-09-12T08:42:52.881Z,6.83
2022-09-12T08:45:19.205Z,6.84
2022-09-12T08:47:45.546Z,6.50
2022-09-12T08:50:11.918Z,6.55
2022-09-12T08:52:38.294Z,6.70
2022-09-12T08:55:04.625Z,6.82
2022-09-12T08:57:30.971Z,6.59
2022-09-12T08:59:57.304Z,6.88
2022-09-12T09:02:23.669Z,6.78
2022-09-12T09:04:50.162Z,6.49
2022-09-12T09:07:16.477Z,6.45
2022-09-12T09:09:42.785Z,6.43
2022-09-12T09:12:09.126Z,6.21
2022-09-12T09:14:35.493Z,6.28
2022-09-12T09:17:01.825Z,6.48
2022-09-12T09:19:28.157Z,6.28
2022-09-12T09:21:54.492Z,6.47
2022-09-12T09:24:20.806Z,6.12
2022-09-12T09:26:47.132Z,6.04
2022-09-12T09:29:13.460Z,6.44
2022-09-12T09:31:39.793Z,5.87
2022-09-12T09:34:06.129Z,6.17
2022-09-12T09:36:32.473Z,5.79
2022-09-12T09:38:58.808Z,5.87
2022-09-12T09:41:25.144Z,5.77
2022-09-12T09:43:51.469Z,6.11
2022-09-12T09:46:17.835Z,5.96
2022-09-12T09:48:44.229Z,5.45
2022-09-12T09:51:10.585Z,5.23
2022-09-12T09:53:36.920Z,5.63
2022-09-12T09:56:03.254Z,5.63
2022-09-12T09:58:29.586Z,5.53
2022-09-12T10:00:56.790Z,5.64
2022-09-12T10:03:23.191Z,5.48
2022-09-12T10:05:49.513Z,5.40
2022-09-12T10:08:15.854Z,5.54
2022-09-12T10:10:42.181Z,5.64
2022-09-12T10:13:08.509Z,5.77
2022-09-12T10:15:34.947Z,5.48
2022-09-12T10:18:01.357Z,5.55
2022-09-12T10:20:27.693Z,5.37
2022-09-12T10:22:54.017Z,5.30
2022-09-12T10:25:20.347Z,4.79
2022-09-12T10:27:46.676Z,4.80
2022-09-12T10:30:13.004Z,4.87
2022-09-12T10:32:39.352Z,5.09
2022-09-12T10:35:05.688Z,5.08
2022-09-12T10:37:32.016Z,4.97
2022-09-12T10:39:58.372Z,4.96
2022-09-12T10:42:24.748Z,4.61
2022-09-12T10:44:51.077Z,5.14
2022-09-12T10:47:17.409Z,4.95
2022-09-12T10:49:43.746Z,4.91
2022-09-12T10:52:10.064Z,4.82
2022-09-12T10:54:36.396Z,4.91
2022-09-12T10:57:02.733Z,4.81
2022-09-12T10:59:29.057Z,4.66
2022-09-12T11:01:55.390Z,4.85
2022-09-12T11:04:21.709Z,4.62
2022-09-12T11:06:48.035Z,4.53
2022-09-12T11:09:14.369Z,4.68
2022-09-12T11:11:40.698Z,4.64
2022-09-12T11:14:07.036Z,4.78
2022-09-12T11:16:33.366Z,4.35
2022-09-12T11:18:59.709Z,4.60
2022-09-12T11:21:26.037Z,4.30
2022-09-12T11:23:52.373Z,4.34
2022-09-12T11:26:18.717Z,4.48
2022-09-12T11:28:47.320Z,4.57
2022-09-12T11:31:13.808Z,4.28
2022-09-12T11:33:42.994Z,4.25
2022-09-12T11:36:09.633Z,4.35
2022-09-12T11:38:35.956Z,4.16
2022-09-12T11:41:02.294Z,4.41
2022-09-12T11:43:28.620Z,4.26
2022-09-12T11:45:54.998Z,4.37
2022-09-12T11:48:21.354Z,4.35
2022-09-12T11:50:47.705Z,3.91
2022-09-12T11:53:14.039Z,4.14
2022-09-12T11:55:40.366Z,4.01
2022-09-12T11:58:06.699Z,3.83
2022-09-12T12:00:33.033Z,4.08
2022-09-12T12:02:59.357Z,3.82
2022-09-12T12:05:25.697Z,3.99
2022-09-12T12:07:52.021Z,4.00
2022-09-12T12:10:18.353Z,4.14
2022-09-12T12:12:44.678Z,3.95
2022-09-12T12:15:10.995Z,4.11
2022-09-12T12:17:37.320Z,3.85
2022-09-12T12:20:07.486Z,3.72
2022-09-12T12:22:34.619Z,3.83
2022-09-12T12:25:00.948Z,3.74
2022-09-12T12:27:27.279Z,3.81
2022-09-12T12:29:53.608Z,3.91
2022-09-12T12:32:19.927Z,3.78
2022-09-12T12:34:46.252Z,3.82
2022-09-12T12:37:12.596Z,3.74
2022-09-12T12:39:38.938Z,3.62
2022-09-12T12:42:05.300Z,3.99
2022-09-12T12:44:31.615Z,3.54
2022-09-12T12:46:57.951Z,3.90
2022-09-12T12:49:24.277Z,4.01
2022-09-12T12:51:50.607Z,3.33
2022-09-12T12:54:16.936Z,3.76
2022-09-12T12:56:43.259Z,3.51
2022-09-12T12:59:09.574Z,3.35
2022-09-12T13:01:35.968Z,3.51
2022-09-12T13:04:02.329Z,3.70
2022-09-12T13:06:28.675Z,3.72
2022-09-12T13:08:55.006Z,3.61
2022-09-12T13:11:21.333Z,3.68
2022-09-12T13:13:47.674Z,3.63
2022-09-12T13:16:14.064Z,3.76
2022-09-12T13:18:40.404Z,3.41
2022-09-12T13:21:06.771Z,3.30
2022-09-12T13:23:33.107Z,2.96
2022-09-12T13:25:59.445Z,3.36
2022-09-12T13:28:25.783Z,3.51
2022-09-12T13:30:52.163Z,3.48
2022-09-12T13:33:18.524Z,3.17
2022-09-12T13:35:44.857Z,3.47
2022-09-12T13:38:11.192Z,3.53
2022-09-12T13:40:37.529Z,3.24
2022-09-12T13:43:03.875Z,3.10
2022-09-12T13:45:30.198Z,3.10
2022-09-12T13:47:58.754Z,3.23
2022-09-12T13:50:25.344Z,3.28
2022-09-12T13:52:51.667Z,3.43
2022-09-12T13:55:18.033Z,3.14
2022-09-12T13:57:44.367Z,3.09
2022-09-12T14:00:10.753Z,3.07
2022-09-12T14:02:37.115Z,3.17
2022-09-12T14:05:03.489Z,3.25
2022-09-12T14:07:29.823Z,3.04
2022-09-12T14:09:56.154Z,3.19
2022-09-12T14:12:22.489Z,3.17
2022-09-12T14:14:48.816Z,3.15
2022-09-12T14:17:16.273Z,2.94
2022-09-12T14:19:42.734Z,3.24
2022-09-12T14:22:09.149Z,3.09
2022-09-12T14:24:35.478Z,2.82
2022-09-12T14:27:01.802Z,3.37
2022-09-12T14:29:28.115Z,2.73
2022-09-12T14:31:54.463Z,2.94
2022-09-12T14:34:20.787Z,3.12
2022-09-12T14:36:47.110Z,2.95
2022-09-12T14:39:13.433Z,2.82
2022-09-12T14:41:39.765Z,2.82
2022-09-12T14:44:06.100Z,2.68
2022-09-12T14:46:32.537Z,2.89
2022-09-12T14:48:58.929Z,3.00
2022-09-12T14:51:25.252Z,3.07
2022-09-12T14:53:51.576Z,2.88
2022-09-12T14:56:17.904Z,2.77
2022-09-12T14:58:44.236Z,2.99
2022-09-12T15:01:10.618Z,2.91
2022-09-12T15:03:37.014Z,2.69
2022-09-12T15:06:03.336Z,2.78
2022-09-12T15:08:29.664Z,2.89
2022-09-12T15:10:56.008Z,2.85
2022-09-12T15:13:22.319Z,2.69
2022-09-12T15:15:48.666Z,2.87
2022-09-12T15:18:15.013Z,2.66
2022-09-12T15:20:41.376Z,2.69
2022-09-12T15:23:07.709Z,2.87
2022-09-12T15:25:34.022Z,2.79
2022-09-12T15:28:00.347Z,2.84
2022-09-12T15:30:26.680Z,2.85
2022-09-12T15:32:53.019Z,2.70
2022-09-12T15:35:19.378Z,2.67
2022-09-12T15:37:45.709Z,2.69
2022-09-12T15:40:12.079Z,2.81
2022-09-12T15:42:38.423Z,2.70
2022-09-12T15:45:04.756Z,2.87
2022-09-12T15:47:31.089Z,2.68
2022-09-12T15:49:57.487Z,2.60
2022-09-12T15:52:23.841Z,2.64
2022-09-12T15:54:50.159Z,2.56
2022-09-12T15:57:16.492Z,2.53
2022-09-12T15:59:42.826Z,2.89
2022-09-12T16:02:09.167Z,2.83
2022-09-12T16:04:35.501Z,2.51
2022-09-12T16:07:01.831Z,2.68
2022-09-12T16:09:28.156Z,2.65
2022-09-12T16:11:54.504Z,2.87
2022-09-12T16:14:20.830Z,2.63
2022-09-12T16:16:48.235Z,2.46
2022-09-12T16:19:14.569Z,2.38
2022-09-12T16:21:40.896Z,2.56
2022-09-12T16:24:07.231Z,2.56
2022-09-12T16:26:33.555Z,2.33
2022-09-12T16:28:59.894Z,2.40
2022-09-12T16:31:26.289Z,2.39
2022-09-12T16:33:52.701Z,2.39
2022-09-12T16:36:19.064Z,2.43
2022-09-12T16:38:45.446Z,2.44
2022-09-12T16:41:11.846Z,2.37
2022-09-12T16:43:38.180Z,2.59
2022-09-12T16:46:04.555Z,2.27
2022-09-12T16:48:30.918Z,2.35
2022-09-12T16:50:57.252Z,2.37
2022-09-12T16:53:23.575Z,2.40
2022-09-12T16:55:49.907Z,2.48
2022-09-12T16:58:16.248Z,2.46
2022-09-12T17:00:42.577Z,2.53
2022-09-12T17:03:08.904Z,2.43
2022-09-12T17:05:35.219Z,2.44
2022-09-12T17:08:01.544Z,2.57
2022-09-12T17:10:27.880Z,2.18
2022-09-12T17:12:54.247Z,2.12
2022-09-12T17:15:20.564Z,2.30
2022-09-12T17:17:46.883Z,2.21
2022-09-12T17:20:13.221Z,2.33
2022-09-12T17:22:39.553Z,2.50
2022-09-12T17:25:05.901Z,2.32
2022-09-12T17:27:32.228Z,2.14
2022-09-12T17:29:58.559Z,2.25
2022-09-12T17:32:24.877Z,2.70
2022-09-12T17:34:51.198Z,2.43
2022-09-12T17:37:17.522Z,2.26
2022-09-12T17:39:43.925Z,2.26
2022-09-12T17:42:10.294Z,2.24
2022-09-12T17:44:36.630Z,2.34
2022-09-12T17:47:02.956Z,2.50
2022-09-12T17:49:29.299Z,2.21
2022-09-12T17:51:55.641Z,2.30
2022-09-12T17:54:21.970Z,2.51
2022-09-12T17:56:48.292Z,2.25
2022-09-12T17:59:14.665Z,2.18
2022-09-12T18:01:41.070Z,2.28
2022-09-12T18:04:07.441Z,2.22
2022-09-12T18:06:33.773Z,2.17
2022-09-12T18:09:00.092Z,2.31
2022-09-12T18:11:26.416Z,2.49
2022-09-12T18:13:52.773Z,3.06
2022-09-12T18:16:19.126Z,10.22
2022-09-12T18:18:45.489Z,20.29
2022-09-12T18:21:11.823Z,37.20
2022-09-12T18:23:38.164Z,40.19
2022-09-12T18:26:04.497Z,38.70
2022-09-12T18:28:30.853Z,45.08
2022-09-12T18:30:57.224Z,47.07
2022-09-12T18:33:24.334Z,49.51
2022-09-12T18:35:50.737Z,50.83
2022-09-12T18:38:17.134Z,51.02
2022-09-12T18:40:43.476Z,50.31
2022-09-12T18:43:10.170Z,50.19
2022-09-12T18:45:36.510Z,50.07
2022-09-12T18:48:02.836Z,49.62
2022-09-12T18:50:29.174Z,47.45
2022-09-12T18:52:59.098Z,46.19
2022-09-12T18:55:26.159Z,46.31
2022-09-12T18:57:52.492Z,46.19
2022-09-12T19:00:18.833Z,46.26
2022-09-12T19:02:45.163Z,45.55
2022-09-12T19:05:11.513Z,44.82
2022-09-12T19:07:37.854Z,42.78
2022-09-12T19:10:04.209Z,43.26
2022-09-12T19:12:30.595Z,42.83
2022-09-12T19:14:56.930Z,41.65
2022-09-12T19:17:23.264Z,39.92
2022-09-12T19:19:49.596Z,38.59
2022-09-12T19:22:15.957Z,38.12
2022-09-12T19:24:42.304Z,37.72
2022-09-12T19:27:08.640Z,36.89
2022-09-12T19:29:34.973Z,36.46
2022-09-12T19:32:01.308Z,35.37
2022-09-12T19:34:27.671Z,34.22
2022-09-12T19:36:53.999Z,34.85
2022-09-12T19:39:20.336Z,33.40
2022-09-12T19:41:46.662Z,33.02
2022-09-12T19:44:13.004Z,32.73
2022-09-12T19:46:39.431Z,31.52
2022-09-12T19:49:05.857Z,30.85
2022-09-12T19:51:32.205Z,30.67
2022-09-12T19:53:58.541Z,29.89
2022-09-12T19:56:24.878Z,29.60
2022-09-12T19:58:56.159Z,28.63
2022-09-12T20:01:23.161Z,28.34
2022-09-12T20:03:49.523Z,27.57
2022-09-12T20:06:15.862Z,27.10
2022-09-12T20:08:42.252Z,26.86
2022-09-12T20:11:08.643Z,26.19
2022-09-12T20:13:35.045Z,25.91
2022-09-12T20:16:01.411Z,24.83
2022-09-12T20:18:27.771Z,24.96
2022-09-12T20:20:54.137Z,24.17
2022-09-12T20:23:20.479Z,23.11
2022-09-12T20:25:46.820Z,23.30
2022-09-12T20:28:13.168Z,22.76
2022-09-12T20:30:39.501Z,22.98
2022-09-12T20:33:09.909Z,22.39
2022-09-12T20:35:36.761Z,22.02
2022-09-12T20:38:03.096Z,21.74
2022-09-12T20:40:29.477Z,20.81
2022-09-12T20:42:55.863Z,20.02
2022-09-12T20:45:22.188Z,19.17
2022-09-12T20:47:48.533Z,16.57
2022-09-12T20:50:14.869Z,13.46
2022-09-12T20:52:41.211Z,12.51
2022-09-12T20:55:07.537Z,10.62
2022-09-12T20:57:33.873Z,9.06
2022-09-12T21:00:00.198Z,8.45
2022-09-12T21:02:26.633Z,8.36
2022-09-12T21:04:53.035Z,7.75
2022-09-12T21:07:19.365Z,7.57
2022-09-12T21:09:45.679Z,6.85
2022-09-12T21:12:12.005Z,6.57
2022-09-12T21:14:38.366Z,6.26
2022-09-12T21:17:04.692Z,5.91
2022-09-12T21:19:31.030Z,5.64
2022-09-12T21:21:57.365Z,5.44
2022-09-12T21:24:23.698Z,5.33
2022-09-12T21:26:50.029Z,5.17
2022-09-12T21:29:16.354Z,4.83
2022-09-12T21:31:42.711Z,4.57
2022-09-12T21:34:09.064Z,4.38
2022-09-12T21:36:35.398Z,4.18
2022-09-12T21:39:01.733Z,4.01
2022-09-12T21:41:28.067Z,4.06
2022-09-12T21:43:54.396Z,4.26
2022-09-12T21:46:20.784Z,4.14
2022-09-12T21:48:47.167Z,4.21
2022-09-12T21:51:13.500Z,4.02
2022-09-12T21:53:39.838Z,3.91
2022-09-12T21:56:06.168Z,3.84
2022-09-12T21:58:32.508Z,3.77
2022-09-12T22:00:58.858Z,3.68
2022-09-12T22:03:25.220Z,3.79
2022-09-12T22:05:51.545Z,3.73
2022-09-12T22:08:17.872Z,3.71
2022-09-12T22:10:44.218Z,3.57
2022-09-12T22:13:10.536Z,3.71
2022-09-12T22:15:40.657Z,3.67
2022-09-12T22:18:07.502Z,3.41
2022-09-12T22:20:33.838Z,3.42
2022-09-12T22:23:00.166Z,3.23
2022-09-12T22:25:26.487Z,3.49
2022-09-12T22:27:52.820Z,3.52
2022-09-12T22:30:19.148Z,3.61
2022-09-12T22:32:45.484Z,3.71
2022-09-12T22:35:11.827Z,3.51
2022-09-12T22:37:38.159Z,3.43
2022-09-12T22:40:04.590Z,3.58
2022-09-12T22:42:30.960Z,3.48
2022-09-12T22:44:57.289Z,3.53
2022-09-12T22:47:23.621Z,3.43
2022-09-12T22:49:49.955Z,3.32
2022-09-12T22:52:16.291Z,3.50
2022-09-12T22:54:42.629Z,3.47
2022-09-12T22:57:08.958Z,3.48
2022-09-12T22:59:35.279Z,3.28
2022-09-12T23:02:01.621Z,3.17
2022-09-12T23:04:27.945Z,3.28
2022-09-12T23:06:54.294Z,3.25
2022-09-12T23:09:20.629Z,3.35
2022-09-12T23:11:47.006Z,3.50
2022-09-12T23:14:13.319Z,3.22
2022-09-12T23:16:39.722Z,3.15
2022-09-12T23:19:06.102Z,3.29
2022-09-12T23:21:32.431Z,3.28
2022-09-12T23:23:58.761Z,3.29
2022-09-12T23:26:25.083Z,3.30
2022-09-12T23:28:51.403Z,3.20
2022-09-12T23:31:17.807Z,3.16
2022-09-12T23:33:44.173Z,3.08
2022-09-12T23:36:10.490Z,3.09
2022-09-12T23:38:36.872Z,3.12
2022-09-12T23:41:03.237Z,3.30
2022-09-12T23:43:29.573Z,3.25
2022-09-12T23:45:55.984Z,3.22
2022-09-12T23:48:22.325Z,3.09
2022-09-12T23:50:48.661Z,3.21
2022-09-12T23:53:15.002Z,2.99
2022-09-12T23:55:41.360Z,3.04
2022-09-12T23:58:07.678Z,3.10
